Time;durP1;ratioP1;P1;durP2;ratioP2;P2;SDS_P1;SDS_P2;PMS_P1;PMS_P2;Temp;Humidity;BMP_temperature;BMP_pressure;BME280_temperature;BME280_humidity;BME280_pressure;Samples;Min_cycle;Max_cycle;Signal;HPM_P1;HPM_P2
2022/01/19 00:00:37;;;;;;;39.22;22.77;;;3.50;99.90;;;;;;5076873;28;20025;-66
2022/01/19 00:03:04;;;;;;;44.53;22.17;;;3.50;99.90;;;;;;5076867;28;20435;-66
2022/01/19 00:05:30;;;;;;;46.80;23.80;;;3.50;99.90;;;;;;5076784;28;20036;-66
2022/01/19 00:07:56;;;;;;;45.63;21.65;;;3.40;99.90;;;;;;5076679;28;20029;-67
2022/01/19 00:10:27;;;;;;;49.88;24.58;;;3.40;99.90;;;;;;5076721;28;20032;-66
2022/01/19 00:12:58;;;;;;;53.30;26.30;;;3.40;99.90;;;;;;5076746;28;20029;-66
2022/01/19 00:15:26;;;;;;;50.45;24.00;;;3.40;99.90;;;;;;5076769;28;20267;-66
2022/01/19 00:17:55;;;;;;;52.17;25.13;;;3.50;99.90;;;;;;5077105;28;20032;-66
2022/01/19 00:20:21;;;;;;;49.10;24.08;;;3.50;99.90;;;;;;5076854;28;20032;-66
2022/01/19 00:22:47;;;;;;;40.53;22.05;;;3.40;99.90;;;;;;5077151;28;20029;-66
2022/01/19 00:25:13;;;;;;;47.20;25.23;;;3.30;99.90;;;;;;5075957;28;20033;-66
2022/01/19 00:27:39;;;;;;;52.90;23.73;;;3.30;99.90;;;;;;5076676;28;20060;-66
2022/01/19 00:30:06;;;;;;;46.42;23.38;;;3.30;99.90;;;;;;5076948;28;20300;-66
2022/01/19 00:32:33;;;;;;;44.22;23.33;;;3.30;99.90;;;;;;5075936;28;20036;-66
2022/01/19 00:34:59;;;;;;;50.92;24.65;;;3.20;99.90;;;;;;5076038;28;20404;-66
2022/01/19 00:37:26;;;;;;;56.85;25.73;;;3.20;99.90;;;;;;5076628;28;20056;-66
2022/01/19 00:39:52;;;;;;;41.50;22.98;;;3.20;99.90;;;;;;5076670;28;20450;-66
2022/01/19 00:42:18;;;;;;;43.90;23.42;;;3.10;99.90;;;;;;5076467;28;20025;-66
2022/01/19 00:44:44;;;;;;;42.20;23.10;;;3.10;99.90;;;;;;5059451;28;20028;-66
2022/01/19 00:47:10;;;;;;;47.72;23.02;;;3.00;99.90;;;;;;5075878;28;20406;-66
2022/01/19 00:49:36;;;;;;;43.60;23.30;;;3.20;99.90;;;;;;5076144;28;20089;-66
2022/01/19 00:52:02;;;;;;;50.50;24.75;;;3.10;99.90;;;;;;5075791;28;20028;-66
2022/01/19 00:54:28;;;;;;;44.85;22.77;;;3.00;99.90;;;;;;5077417;28;20028;-66
2022/01/19 00:56:54;;;;;;;46.80;23.83;;;3.00;99.90;;;;;;5079698;28;20020;-66
2022/01/19 00:59:20;;;;;;;45.38;23.25;;;2.90;99.90;;;;;;5062976;28;20064;-66
2022/01/19 01:01:46;;;;;;;52.45;24.42;;;3.00;99.90;;;;;;5080417;28;20360;-66
2022/01/19 01:04:14;;;;;;;41.53;23.15;;;2.90;99.90;;;;;;5079481;28;20052;-66
2022/01/19 01:06:40;;;;;;;45.72;23.25;;;3.00;99.90;;;;;;5080295;28;20427;-66
2022/01/19 01:09:06;;;;;;;46.75;24.80;;;2.90;99.90;;;;;;5079485;28;20029;-66
2022/01/19 01:11:36;;;;;;;47.63;24.08;;;2.90;99.90;;;;;;5079424;28;20112;-66
2022/01/19 01:18:57;;;;;;;52.47;24.55;;;2.80;99.90;;;;;;5079178;28;20074;-66
2022/01/19 01:21:23;;;;;;;42.03;23.27;;;2.90;99.90;;;;;;5080023;28;20163;-66
2022/01/19 01:23:49;;;;;;;43.75;23.08;;;2.90;99.90;;;;;;5079923;28;20056;-66
2022/01/19 01:26:14;;;;;;;44.30;22.08;;;2.90;99.90;;;;;;5079237;28;20032;-66
2022/01/19 01:28:40;;;;;;;45.15;23.00;;;2.70;99.90;;;;;;5079937;28;20033;-66
2022/01/19 01:31:09;;;;;;;49.85;24.88;;;2.70;99.90;;;;;;5079779;28;20052;-66
2022/01/19 01:33:38;;;;;;;43.67;23.25;;;2.80;99.90;;;;;;5078889;28;20029;-66
2022/01/19 01:36:04;;;;;;;47.70;23.40;;;2.80;99.90;;;;;;5079710;28;20033;-66
2022/01/19 01:38:30;;;;;;;52.78;24.42;;;2.80;99.90;;;;;;5078897;28;20032;-66
2022/01/19 01:40:56;;;;;;;49.22;23.50;;;2.90;99.90;;;;;;5062157;28;20128;-66
2022/01/19 01:43:22;;;;;;;51.38;24.17;;;2.90;99.90;;;;;;5079643;28;20033;-66
2022/01/19 01:45:53;;;;;;;50.33;24.63;;;2.90;99.90;;;;;;5078771;28;20036;-66
2022/01/19 01:48:22;;;;;;;53.13;24.45;;;2.90;99.90;;;;;;5078823;28;20025;-66
2022/01/19 01:53:48;;;;;;;48.47;23.67;;;2.80;99.90;;;;;;5078691;28;20037;-66
2022/01/19 01:56:16;;;;;;;43.38;23.30;;;2.70;99.90;;;;;;5079452;28;20044;-66
2022/01/19 01:58:47;;;;;;;40.88;21.77;;;2.70;99.90;;;;;;5078563;28;20320;-66
2022/01/19 02:01:27;;;;;;;41.50;21.23;;;2.60;99.90;;;;;;5079963;28;20102;-66
2022/01/19 02:03:53;;;;;;;45.80;23.13;;;2.60;99.90;;;;;;5061756;28;20033;-66
2022/01/19 02:22:58;;;;;;;45.35;21.85;;;2.60;99.90;;;;;;5078131;28;20218;-66
2022/01/19 02:25:28;;;;;;;51.47;23.85;;;2.50;99.90;;;;;;5078808;28;20423;-66
2022/01/19 02:41:38;;;;;;;50.00;24.55;;;2.60;99.90;;;;;;5079104;28;20300;-66
2022/01/19 02:44:05;;;;;;;49.38;23.40;;;2.60;99.90;;;;;;5078352;28;20292;-65
2022/01/19 02:46:41;;;;;;;49.25;24.65;;;2.60;99.90;;;;;;5078433;28;20040;-65
2022/01/19 02:49:16;;;;;;;46.25;23.73;;;2.60;99.90;;;;;;5078328;28;20063;-66
2022/01/19 02:51:43;;;;;;;47.58;24.30;;;2.60;99.90;;;;;;5077601;28;20028;-66
2022/01/19 02:54:13;;;;;;;49.25;23.67;;;2.70;99.90;;;;;;5077504;28;20053;-66
2022/01/19 02:56:42;;;;;;;48.28;24.92;;;2.70;99.90;;;;;;5077484;28;20021;-66
2022/01/19 03:10:26;;;;;;;59.22;27.50;;;3.20;99.90;;;;;;5077892;28;20411;-66
2022/01/19 03:12:52;;;;;;;51.67;25.08;;;3.20;99.90;;;;;;5077859;28;20032;-66
2022/01/19 03:15:18;;;;;;;57.92;27.05;;;3.20;99.90;;;;;;5077074;28;20040;-66
2022/01/19 03:17:43;;;;;;;57.05;25.65;;;3.00;99.90;;;;;;5077714;28;20036;-65
2022/01/19 03:20:11;;;;;;;56.90;25.95;;;2.90;99.90;;;;;;5076993;28;20304;-66
2022/01/19 03:22:45;;;;;;;59.38;25.83;;;2.80;99.90;;;;;;5060258;28;20053;-66
2022/01/19 03:25:13;;;;;;;69.07;25.42;;;2.70;99.90;;;;;;5077714;28;20277;-66
2022/01/19 03:27:46;;;;;;;52.03;25.33;;;2.70;99.90;;;;;;5077493;28;20041;-65
2022/01/19 03:30:13;;;;;;;61.47;25.63;;;2.60;99.90;;;;;;5076828;28;20032;-66
2022/01/19 03:32:39;;;;;;;40.95;23.15;;;2.60;99.90;;;;;;5076684;28;20032;-65
2022/01/19 03:35:06;;;;;;;49.70;24.52;;;2.30;99.90;;;;;;5076565;28;20044;-65
2022/01/19 03:37:32;;;;;;;44.63;24.10;;;2.20;99.90;;;;;;5077392;28;20023;-65
2022/01/19 03:39:57;;;;;;;58.38;24.48;;;2.30;99.90;;;;;;5076599;28;20032;-65
2022/01/19 03:42:23;;;;;;;55.33;27.20;;;2.50;99.90;;;;;;5077453;28;20407;-66
2022/01/19 03:44:49;;;;;;;48.80;26.27;;;2.60;99.90;;;;;;5077307;28;20411;-66
2022/01/19 03:47:17;;;;;;;49.42;25.98;;;2.60;99.90;;;;;;5076448;28;20028;-66
2022/01/19 03:49:43;;;;;;;52.33;25.95;;;2.50;99.90;;;;;;5060049;28;20440;-65
2022/01/19 03:52:09;;;;;;;43.63;24.92;;;2.30;99.90;;;;;;5059778;28;20086;-66
2022/01/19 03:54:42;;;;;;;41.20;24.33;;;2.20;99.90;;;;;;5076462;28;20025;-66
2022/01/19 03:57:09;;;;;;;41.25;23.58;;;2.10;99.90;;;;;;5076398;28;20025;-66
2022/01/19 03:59:36;;;;;;;49.75;25.20;;;2.00;99.90;;;;;;5076360;28;20032;-66
2022/01/19 04:02:03;;;;;;;48.95;24.80;;;2.00;99.90;;;;;;5077066;28;20032;-65
2022/01/19 04:07:07;;;;;;;51.08;25.83;;;2.10;99.90;;;;;;5076662;28;20048;-66
2022/01/19 04:09:40;;;;;;;48.25;25.38;;;2.10;99.90;;;;;;5076164;28;20042;-65
2022/01/19 04:12:09;;;;;;;44.15;25.20;;;2.10;99.90;;;;;;5077021;28;20354;-65
2022/01/19 04:14:35;;;;;;;45.13;24.23;;;2.10;99.90;;;;;;5076062;28;20426;-66
2022/01/19 04:17:13;;;;;;;43.95;25.35;;;2.10;99.90;;;;;;5059525;28;20025;-66
2022/01/19 04:22:18;;;;;;;43.22;24.77;;;2.10;99.90;;;;;;5076096;28;20036;-66
2022/01/19 04:24:45;;;;;;;44.88;23.77;;;2.10;99.90;;;;;;5076275;28;20341;-66
2022/01/19 04:30:07;;;;;;;43.63;24.13;;;2.20;99.90;;;;;;5077341;28;20032;-67
2022/01/19 04:35:13;;;;;;;38.75;23.38;;;2.30;99.90;;;;;;5079899;28;20469;-66
2022/01/19 05:04:49;;;;;;;36.33;19.73;;;3.10;99.90;;;;;;5079487;28;20036;-65
2022/01/19 05:08:20;;;;;;;37.15;19.58;;;3.10;99.90;;;;;;5080810;28;20036;-66
2022/01/19 05:15:42;;;;;;;35.67;18.98;;;3.20;99.90;;;;;;5079365;28;20070;-65
2022/01/19 05:18:11;;;;;;;34.20;18.35;;;3.20;99.90;;;;;;5079204;28;20063;-65
2022/01/19 05:20:38;;;;;;;31.67;18.20;;;3.30;99.90;;;;;;5079235;28;20025;-65
2022/01/19 05:23:04;;;;;;;28.25;17.17;;;3.20;99.90;;;;;;5079631;28;20058;-66
2022/01/19 05:25:30;;;;;;;35.65;19.73;;;3.30;99.90;;;;;;5079889;28;20024;-66
2022/01/19 05:28:19;;;;;;;32.08;18.73;;;3.30;99.90;;;;;;5081623;28;20128;-66
2022/01/19 05:30:45;;;;;;;33.90;19.23;;;3.50;99.90;;;;;;5078982;28;20408;-66
2022/01/19 05:33:11;;;;;;;36.13;18.60;;;3.50;99.90;;;;;;5079719;28;20048;-65
2022/01/19 05:35:38;;;;;;;30.50;17.95;;;3.50;99.90;;;;;;5078733;28;20495;-66
2022/01/19 05:38:19;;;;;;;33.22;17.83;;;3.60;99.90;;;;;;5080133;28;20044;-66
2022/01/19 05:41:03;;;;;;;34.40;17.85;;;3.60;99.90;;;;;;5079482;28;20059;-65
2022/01/19 05:43:31;;;;;;;30.23;17.25;;;3.50;99.90;;;;;;5078727;28;20086;-66
2022/01/19 05:45:57;;;;;;;29.00;17.30;;;3.50;99.90;;;;;;5078709;28;20028;-66
2022/01/19 05:48:24;;;;;;;32.83;18.10;;;3.60;99.90;;;;;;5078674;28;20097;-66
2022/01/19 05:50:53;;;;;;;28.63;17.02;;;3.50;99.90;;;;;;5062444;28;20031;-67
2022/01/19 05:53:22;;;;;;;30.15;18.13;;;3.60;99.90;;;;;;5078520;28;20406;-66
2022/01/19 05:55:49;;;;;;;27.52;16.02;;;3.50;99.90;;;;;;5078545;28;20411;-66
2022/01/19 05:58:15;;;;;;;26.40;16.33;;;3.50;99.90;;;;;;5079192;28;20036;-66
2022/01/19 06:00:42;;;;;;;26.95;16.67;;;3.50;99.90;;;;;;5062195;28;20036;-66
2022/01/19 06:03:10;;;;;;;30.38;16.88;;;3.50;99.90;;;;;;5078391;28;20036;-66
2022/01/19 06:05:54;;;;;;;31.17;17.55;;;3.60;99.90;;;;;;5079052;28;20047;-66
2022/01/19 06:08:42;;;;;;;27.45;16.52;;;3.60;99.90;;;;;;5063533;28;20135;-66
2022/01/19 06:11:09;;;;;;;29.10;16.85;;;3.80;99.90;;;;;;5078259;28;20025;-66
2022/01/19 06:13:36;;;;;;;28.70;16.08;;;3.80;99.90;;;;;;5078205;28;20415;-66
2022/01/19 06:16:02;;;;;;;29.92;16.83;;;3.80;99.90;;;;;;5078160;28;20346;-66
2022/01/19 06:18:29;;;;;;;22.63;15.45;;;3.80;99.90;;;;;;5078125;28;20090;-67
2022/01/19 06:20:55;;;;;;;25.00;15.25;;;3.80;99.90;;;;;;5078182;28;20045;-66
2022/01/19 06:23:28;;;;;;;28.77;16.95;;;3.90;99.90;;;;;;5078215;28;20046;-66
2022/01/19 06:26:06;;;;;;;27.35;15.60;;;4.00;99.90;;;;;;5079068;28;20044;-66
2022/01/19 06:28:33;;;;;;;26.45;15.13;;;4.10;99.90;;;;;;5077861;28;20032;-66
2022/01/19 06:30:59;;;;;;;25.92;16.42;;;4.20;99.90;;;;;;5077912;28;20354;-67
2022/01/19 06:33:25;;;;;;;25.13;15.85;;;4.10;99.90;;;;;;5061318;28;20107;-67
2022/01/19 06:35:52;;;;;;;26.02;15.57;;;4.10;99.90;;;;;;5061052;28;20178;-66
2022/01/19 06:38:25;;;;;;;28.50;15.95;;;4.00;99.90;;;;;;5062324;28;20354;-66
2022/01/19 06:41:08;;;;;;;22.70;15.38;;;3.90;99.90;;;;;;5078495;28;20028;-66
2022/01/19 06:43:37;;;;;;;22.77;14.43;;;3.80;99.90;;;;;;5077598;28;20273;-66
2022/01/19 06:46:04;;;;;;;23.13;14.90;;;3.80;99.90;;;;;;5077505;28;20024;-67
2022/01/19 06:48:30;;;;;;;25.40;15.43;;;3.80;99.90;;;;;;5077471;28;20036;-66
2022/01/19 06:50:57;;;;;;;25.77;15.35;;;3.70;99.90;;;;;;5078199;28;20035;-67
2022/01/19 06:53:32;;;;;;;24.67;15.90;;;3.70;99.90;;;;;;5076710;28;20024;-67
2022/01/19 06:56:19;;;;;;;21.77;14.98;;;3.80;99.90;;;;;;5077897;28;20167;-67
2022/01/19 06:58:47;;;;;;;24.38;15.40;;;3.80;99.90;;;;;;5077194;28;20040;-66
2022/01/19 07:01:33;;;;;;;23.80;15.02;;;3.90;99.90;;;;;;5077376;28;20446;-67
2022/01/19 07:04:11;;;;;;;23.27;15.13;;;3.90;99.90;;;;;;5077185;28;20036;-66
2022/01/19 07:06:37;;;;;;;25.65;15.90;;;3.90;99.90;;;;;;5077794;28;20036;-66
2022/01/19 07:09:38;;;;;;;25.13;15.88;;;4.00;99.90;;;;;;5082060;28;20041;-66
2022/01/19 07:12:05;;;;;;;23.58;15.40;;;4.10;99.90;;;;;;5077692;28;20061;-67
2022/01/19 07:14:33;;;;;;;23.48;15.55;;;4.00;99.90;;;;;;5044652;28;20044;-67
2022/01/19 07:16:59;;;;;;;22.73;15.57;;;4.00;99.90;;;;;;5076863;28;20028;-67
2022/01/19 07:19:25;;;;;;;21.67;15.60;;;4.10;99.90;;;;;;5076824;28;20036;-67
2022/01/19 07:21:51;;;;;;;24.38;15.60;;;4.10;99.90;;;;;;5076819;28;20128;-67
2022/01/19 07:24:17;;;;;;;23.65;15.02;;;4.10;99.90;;;;;;5077556;28;20032;-67
2022/01/19 07:26:43;;;;;;;25.17;15.93;;;4.10;99.90;;;;;;5077416;28;20028;-67
2022/01/19 07:29:12;;;;;;;27.63;15.13;;;4.20;99.90;;;;;;5076592;28;20119;-67
2022/01/19 07:31:38;;;;;;;22.63;15.38;;;4.30;99.90;;;;;;5076732;28;20039;-67
2022/01/19 07:34:07;;;;;;;22.40;14.95;;;4.20;99.90;;;;;;5076317;28;20379;-67
2022/01/19 07:36:36;;;;;;;23.10;14.95;;;4.20;99.90;;;;;;5076646;28;20123;-67
2022/01/19 07:39:02;;;;;;;23.00;15.30;;;4.20;99.90;;;;;;5077322;28;20040;-67
2022/01/19 07:41:30;;;;;;;24.13;15.38;;;4.20;99.90;;;;;;5060072;28;20053;-67
2022/01/19 07:43:57;;;;;;;25.48;14.95;;;4.30;99.90;;;;;;5076490;28;20082;-67
2022/01/19 07:46:25;;;;;;;20.42;14.68;;;4.30;99.90;;;;;;5077654;28;20047;-66
2022/01/19 07:49:10;;;;;;;19.85;13.63;;;4.30;99.90;;;;;;5077121;28;20067;-66
2022/01/19 07:51:52;;;;;;;22.85;13.85;;;4.40;99.90;;;;;;5076344;28;20127;-67
2022/01/19 07:54:46;;;;;;;23.73;14.65;;;4.40;99.90;;;;;;5063643;28;20043;-67
2022/01/19 07:57:35;;;;;;;22.92;14.02;;;4.40;99.90;;;;;;5079539;28;20041;-66
2022/01/19 08:00:21;;;;;;;20.98;14.18;;;4.60;99.90;;;;;;5076904;28;20040;-67
2022/01/19 08:02:49;;;;;;;23.40;14.52;;;4.60;99.90;;;;;;5077298;28;20119;-66
2022/01/19 08:05:44;;;;;;;19.75;13.30;;;4.70;99.90;;;;;;5071728;28;20286;-66
2022/01/19 08:08:11;;;;;;;23.55;13.02;;;4.70;99.90;;;;;;5076104;28;20056;-66
2022/01/19 08:10:40;;;;;;;19.67;13.07;;;4.70;99.90;;;;;;5076065;28;20029;-66
2022/01/19 08:13:06;;;;;;;19.95;13.75;;;4.70;99.90;;;;;;5076787;28;20035;-66
2022/01/19 08:15:32;;;;;;;19.08;13.95;;;4.80;99.90;;;;;;5075926;28;20028;-66
2022/01/19 08:18:03;;;;;;;18.27;11.68;;;4.80;99.90;;;;;;5076124;28;20025;-67
2022/01/19 08:20:29;;;;;;;18.00;13.27;;;4.90;99.90;;;;;;5076718;28;20086;-66
2022/01/19 08:22:56;;;;;;;16.17;11.70;;;4.90;99.90;;;;;;5076793;28;20391;-67
2022/01/19 08:25:26;;;;;;;16.20;12.38;;;4.90;99.90;;;;;;5075776;28;20105;-67
2022/01/19 08:27:52;;;;;;;17.98;12.18;;;5.00;99.90;;;;;;5075711;28;20374;-67
2022/01/19 08:30:26;;;;;;;19.75;13.10;;;5.10;99.90;;;;;;5076227;28;20028;-67
2022/01/19 08:32:52;;;;;;;19.42;13.00;;;5.20;99.90;;;;;;5075791;28;20029;-67
2022/01/19 08:35:43;;;;;;;16.23;12.07;;;5.20;99.90;;;;;;5076975;28;20071;-66
2022/01/19 08:38:29;;;;;;;18.58;12.25;;;5.10;99.90;;;;;;5076674;28;20048;-67
2022/01/19 08:41:17;;;;;;;16.83;12.32;;;5.10;99.90;;;;;;5075490;28;20036;-67
2022/01/19 08:43:44;;;;;;;20.08;12.70;;;5.10;99.90;;;;;;5075845;28;20063;-67
2022/01/19 08:46:10;;;;;;;15.00;11.60;;;5.20;99.90;;;;;;5075861;28;20032;-67
2022/01/19 08:48:56;;;;;;;16.63;11.40;;;5.30;99.90;;;;;;5076355;28;20032;-67
2022/01/19 08:51:54;;;;;;;19.55;13.07;;;5.20;99.90;;;;;;5075692;28;20407;-66
2022/01/19 08:54:26;;;;;;;16.27;12.32;;;5.20;99.90;;;;;;5060134;28;20024;-66
2022/01/19 08:57:06;;;;;;;18.40;12.60;;;5.20;99.90;;;;;;5075657;28;20021;-66
2022/01/19 08:59:36;;;;;;;18.48;13.60;;;5.10;99.90;;;;;;5075807;28;20044;-66
2022/01/19 09:02:03;;;;;;;18.23;12.48;;;5.10;99.90;;;;;;5076399;28;20086;-67
2022/01/19 09:04:29;;;;;;;17.77;12.48;;;5.10;99.90;;;;;;5075748;28;20036;-67
2022/01/19 09:06:55;;;;;;;18.38;12.93;;;5.20;99.90;;;;;;5076315;28;20032;-67
2022/01/19 09:09:21;;;;;;;17.30;12.52;;;5.20;99.90;;;;;;5076197;28;20040;-67
2022/01/19 09:11:48;;;;;;;19.05;14.13;;;5.30;99.90;;;;;;5075530;28;20407;-67
2022/01/19 09:14:13;;;;;;;19.17;13.75;;;5.20;99.90;;;;;;5076373;28;20277;-67
2022/01/19 09:16:39;;;;;;;18.60;13.73;;;5.20;99.90;;;;;;5079033;28;20025;-67
2022/01/19 09:19:09;;;;;;;21.65;14.00;;;5.20;99.90;;;;;;5079975;28;20024;-67
2022/01/19 09:21:35;;;;;;;20.17;13.85;;;5.20;99.90;;;;;;5080256;28;20304;-67
2022/01/19 09:24:01;;;;;;;20.98;14.07;;;5.20;99.90;;;;;;5079162;28;20036;-66
2022/01/19 09:26:29;;;;;;;20.58;14.95;;;5.40;99.90;;;;;;5079847;28;20467;-66
2022/01/19 09:28:56;;;;;;;21.65;14.60;;;5.50;99.90;;;;;;5079745;28;20024;-67
2022/01/19 09:31:21;;;;;;;20.13;15.05;;;5.60;99.90;;;;;;5079685;28;20075;-65
2022/01/19 09:33:55;;;;;;;19.65;14.63;;;5.50;99.90;;;;;;5079530;28;20354;-67
2022/01/19 09:36:35;;;;;;;20.00;15.18;;;5.60;99.90;;;;;;5079703;28;20316;-66
2022/01/19 09:39:04;;;;;;;27.52;15.65;;;5.70;99.90;;;;;;5079570;28;20056;-67
2022/01/19 09:41:31;;;;;;;22.45;14.65;;;5.40;99.90;;;;;;5079156;28;20331;-66
2022/01/19 09:43:57;;;;;;;22.23;14.57;;;5.10;99.90;;;;;;5079487;28;20056;-68
2022/01/19 09:46:24;;;;;;;21.23;15.35;;;4.80;99.90;;;;;;5079526;28;20102;-68
2022/01/19 09:48:50;;;;;;;21.48;14.95;;;4.70;99.90;;;;;;5079527;28;20312;-68
2022/01/19 09:51:17;;;;;;;21.73;15.02;;;4.70;99.90;;;;;;5079502;28;20109;-69
2022/01/19 09:53:43;;;;;;;21.33;16.35;;;4.70;99.90;;;;;;5079315;28;20056;-69
2022/01/19 09:56:09;;;;;;;23.70;16.05;;;4.80;99.90;;;;;;5078699;28;20024;-69
2022/01/19 09:58:35;;;;;;;22.52;15.15;;;4.80;99.90;;;;;;5079514;28;20047;-69
2022/01/19 10:01:01;;;;;;;23.30;15.05;;;4.80;99.90;;;;;;5079715;28;20024;-68
2022/01/19 10:03:30;;;;;;;24.63;16.73;;;4.70;99.90;;;;;;5079217;28;20036;-69
2022/01/19 10:06:02;;;;;;;26.50;17.40;;;4.70;99.90;;;;;;5079477;28;20264;-69
2022/01/19 10:08:45;;;;;;;25.08;16.52;;;4.70;99.90;;;;;;5079153;28;20028;-68
2022/01/19 10:17:00;;;;;;;27.00;17.33;;;4.80;99.90;;;;;;5079115;28;20029;-70
2022/01/19 10:19:45;;;;;;;25.80;17.60;;;4.80;99.90;;;;;;5079039;28;20093;-68
2022/01/19 10:22:18;;;;;;;26.05;17.73;;;4.80;99.90;;;;;;5078884;28;20120;-70
2022/01/19 10:24:56;;;;;;;25.05;16.90;;;4.80;99.90;;;;;;5078909;28;20060;-69
2022/01/19 10:27:35;;;;;;;24.40;16.75;;;4.90;99.90;;;;;;5077819;28;20039;-69
2022/01/19 10:30:04;;;;;;;23.33;17.05;;;5.00;99.90;;;;;;5078599;28;20033;-67
2022/01/19 10:32:37;;;;;;;26.45;17.67;;;5.20;99.90;;;;;;5078562;28;20425;-70
2022/01/19 10:35:20;;;;;;;25.77;17.13;;;5.10;99.90;;;;;;5078505;28;20041;-68
2022/01/19 10:38:09;;;;;;;24.50;17.08;;;5.20;99.90;;;;;;5078591;28;20121;-68
2022/01/19 10:40:37;;;;;;;24.58;16.85;;;5.20;99.90;;;;;;5078629;28;20288;-69
2022/01/19 10:43:38;;;;;;;26.45;17.02;;;5.00;99.90;;;;;;5077808;28;20021;-69
2022/01/19 10:46:16;;;;;;;26.15;17.52;;;5.10;99.90;;;;;;5078456;28;20288;-68
2022/01/19 10:48:43;;;;;;;23.95;17.05;;;5.20;99.90;;;;;;5078361;28;20024;-69
2022/01/19 10:51:21;;;;;;;26.55;17.85;;;5.30;99.90;;;;;;5078373;28;20111;-70
2022/01/19 10:54:05;;;;;;;26.33;17.73;;;5.20;99.90;;;;;;5078329;28;20047;-69
2022/01/19 10:56:32;;;;;;;28.48;18.35;;;5.10;99.90;;;;;;5078503;28;20349;-67
2022/01/19 10:59:00;;;;;;;25.92;17.67;;;5.30;99.90;;;;;;5078181;28;20025;-68
2022/01/19 11:01:46;;;;;;;29.52;17.98;;;5.20;99.90;;;;;;5078009;28;20055;-68
2022/01/19 11:04:24;;;;;;;30.17;18.02;;;5.30;99.90;;;;;;5078161;28;20059;-68
2022/01/19 11:07:03;;;;;;;25.40;17.90;;;5.20;99.90;;;;;;5078107;28;20119;-69
2022/01/19 11:09:31;;;;;;;26.20;18.52;;;5.10;99.90;;;;;;5078565;28;20060;-69
2022/01/19 11:12:03;;;;;;;28.30;18.15;;;5.20;99.90;;;;;;5078031;28;20020;-69
2022/01/19 11:14:29;;;;;;;26.63;17.30;;;5.20;99.90;;;;;;5077933;28;20108;-68
2022/01/19 11:16:55;;;;;;;29.50;19.23;;;5.10;99.90;;;;;;5078104;28;20020;-68
2022/01/19 11:19:22;;;;;;;29.55;18.20;;;5.10;99.90;;;;;;5077783;28;20032;-67
2022/01/19 11:22:14;;;;;;;33.03;19.05;;;5.10;99.90;;;;;;5060493;28;20083;-67
2022/01/19 11:25:07;;;;;;;30.63;18.88;;;5.10;99.90;;;;;;5077672;28;20047;-67
2022/01/19 11:27:42;;;;;;;29.27;19.10;;;5.30;99.90;;;;;;5077703;28;20036;-68
2022/01/19 11:30:34;;;;;;;29.63;19.75;;;5.30;99.90;;;;;;5078055;28;20036;-68
2022/01/19 11:33:26;;;;;;;28.02;18.65;;;5.30;99.90;;;;;;5075682;28;20286;-68
2022/01/19 11:36:16;;;;;;;30.67;19.58;;;5.20;99.90;;;;;;5077129;28;20394;-68
2022/01/19 11:38:45;;;;;;;30.55;19.17;;;5.20;99.90;;;;;;5077034;28;20033;-68
2022/01/19 11:41:31;;;;;;;32.40;19.58;;;5.20;99.90;;;;;;5077253;28;20036;-68
2022/01/19 11:43:57;;;;;;;29.83;18.58;;;5.30;99.90;;;;;;5076639;28;20041;-69
2022/01/19 11:46:26;;;;;;;31.88;20.02;;;5.20;99.90;;;;;;5076233;28;20036;-67
2022/01/19 11:48:52;;;;;;;29.10;19.42;;;5.30;99.90;;;;;;5077043;28;20438;-67
2022/01/19 11:51:31;;;;;;;33.42;19.67;;;5.30;99.90;;;;;;5076957;28;20047;-69
2022/01/19 11:54:03;;;;;;;36.05;20.40;;;5.50;99.90;;;;;;5060170;28;20024;-69
2022/01/19 11:56:29;;;;;;;31.38;19.17;;;5.50;99.90;;;;;;5076271;28;20036;-68
2022/01/19 11:59:07;;;;;;;32.78;20.33;;;5.40;99.90;;;;;;5076230;28;20024;-68
2022/01/19 12:01:34;;;;;;;30.85;19.77;;;5.50;99.90;;;;;;5076195;28;20043;-69
2022/01/19 12:04:18;;;;;;;34.35;19.75;;;5.80;99.90;;;;;;5076196;28;20111;-69
2022/01/19 12:06:44;;;;;;;34.38;18.98;;;6.10;99.90;;;;;;5076943;28;20032;-68
2022/01/19 12:09:12;;;;;;;35.30;19.65;;;5.80;99.90;;;;;;5076075;28;20033;-67
2022/01/19 12:11:48;;;;;;;34.92;18.92;;;5.70;99.90;;;;;;5076141;28;20036;-67
2022/01/19 12:14:35;;;;;;;34.03;20.10;;;5.60;99.90;;;;;;5076109;28;20032;-68
2022/01/19 12:17:24;;;;;;;34.78;20.05;;;5.60;99.90;;;;;;5076816;28;20350;-68
2022/01/19 12:19:50;;;;;;;32.85;19.83;;;5.60;99.90;;;;;;5076297;28;20118;-68
2022/01/19 12:22:22;;;;;;;32.78;19.83;;;5.80;99.90;;;;;;5076362;28;20051;-68
2022/01/19 12:24:56;;;;;;;36.07;20.43;;;5.80;99.90;;;;;;5076124;28;20021;-68
2022/01/19 12:27:31;;;;;;;34.03;20.30;;;5.70;99.90;;;;;;5076720;28;20533;-68
2022/01/19 12:30:02;;;;;;;37.47;20.75;;;5.50;99.90;;;;;;5077236;28;20028;-68
2022/01/19 12:32:27;;;;;;;37.30;19.98;;;5.60;99.90;;;;;;5076577;28;20043;-67
2022/01/19 12:35:07;;;;;;;36.58;21.50;;;5.70;99.90;;;;;;5076522;28;20053;-67
2022/01/19 12:37:43;;;;;;;40.97;20.90;;;5.60;99.90;;;;;;5059243;28;20154;-69
2022/01/19 12:40:35;;;;;;;34.65;19.73;;;5.80;99.90;;;;;;5076697;28;20040;-69
2022/01/19 12:43:04;;;;;;;36.65;20.33;;;5.70;99.90;;;;;;5075932;28;20035;-68
2022/01/19 12:45:34;;;;;;;36.47;20.70;;;5.70;99.90;;;;;;5076517;28;20029;-67
2022/01/19 12:48:07;;;;;;;37.55;20.85;;;5.90;99.90;;;;;;5076384;28;20025;-67
2022/01/19 12:50:34;;;;;;;32.92;19.52;;;6.00;99.90;;;;;;5076932;28;20024;-68
2022/01/19 12:53:07;;;;;;;34.22;19.98;;;6.10;99.90;;;;;;5079637;28;20017;-66
2022/01/19 12:55:35;;;;;;;41.35;21.05;;;5.80;99.90;;;;;;5080518;28;20036;-67
2022/01/19 12:58:29;;;;;;;37.55;21.15;;;5.70;99.90;;;;;;5080646;28;20020;-68
2022/01/19 13:00:58;;;;;;;35.65;21.17;;;5.70;99.90;;;;;;5079980;28;20045;-69
2022/01/19 13:03:29;;;;;;;33.88;20.50;;;5.80;99.90;;;;;;5079492;28;20032;-68
2022/01/19 13:06:17;;;;;;;39.30;21.20;;;5.80;99.90;;;;;;5080932;28;20037;-68
2022/01/19 13:08:58;;;;;;;38.22;20.80;;;5.80;99.90;;;;;;5080410;28;20029;-68
2022/01/19 13:11:38;;;;;;;39.42;22.48;;;5.70;99.90;;;;;;5062902;28;20135;-68
2022/01/19 13:14:13;;;;;;;36.92;21.38;;;5.70;99.90;;;;;;5080212;28;20107;-63
2022/01/19 13:16:40;;;;;;;39.53;21.70;;;5.80;99.90;;;;;;5080210;28;20052;-68
2022/01/19 13:19:13;;;;;;;41.20;22.75;;;5.80;99.90;;;;;;5079312;28;20441;-69
2022/01/19 13:21:40;;;;;;;37.28;21.27;;;5.90;99.90;;;;;;5080090;28;20116;-70
2022/01/19 13:24:13;;;;;;;33.17;20.85;;;5.80;99.90;;;;;;5079909;28;20036;-66
2022/01/19 13:26:46;;;;;;;42.20;21.73;;;5.90;99.90;;;;;;5079319;28;20404;-69
2022/01/19 13:29:16;;;;;;;36.65;22.00;;;5.90;99.90;;;;;;5079826;28;20028;-72
2022/01/19 13:31:55;;;;;;;35.05;20.98;;;5.80;99.90;;;;;;5080253;28;20344;-68
2022/01/19 13:34:21;;;;;;;36.70;21.60;;;5.80;99.90;;;;;;5079624;28;20068;-68
2022/01/19 13:36:56;;;;;;;33.65;21.83;;;5.80;99.90;;;;;;5078889;28;20056;-69
2022/01/19 13:39:24;;;;;;;35.58;20.60;;;5.90;99.90;;;;;;5079074;28;20063;-70
2022/01/19 13:41:52;;;;;;;35.38;19.98;;;5.90;99.90;;;;;;5079673;28;20032;-69
2022/01/19 13:44:25;;;;;;;35.85;20.67;;;5.80;99.90;;;;;;5079641;28;20089;-68
2022/01/19 13:46:51;;;;;;;34.95;20.85;;;5.90;99.90;;;;;;5079598;28;20032;-67
2022/01/19 13:49:16;;;;;;;38.92;21.00;;;5.90;99.90;;;;;;5079446;28;20265;-69
2022/01/19 13:51:43;;;;;;;35.25;21.33;;;5.90;99.90;;;;;;5078763;28;20304;-69
2022/01/19 13:54:09;;;;;;;35.45;21.25;;;5.90;99.90;;;;;;5079563;28;20303;-68
2022/01/19 13:56:47;;;;;;;32.00;20.90;;;6.10;99.90;;;;;;5062031;28;20039;-71
2022/01/19 13:59:17;;;;;;;36.65;21.25;;;6.00;99.90;;;;;;5078670;28;20392;-69
2022/01/19 14:01:50;;;;;;;37.70;22.70;;;5.90;99.90;;;;;;5078246;28;20312;-64
2022/01/19 14:04:16;;;;;;;39.67;21.90;;;5.90;99.90;;;;;;5078571;28;20039;-69
2022/01/19 14:06:45;;;;;;;40.53;22.60;;;5.90;99.90;;;;;;5078471;28;20292;-69
2022/01/19 14:09:13;;;;;;;42.55;24.55;;;5.90;99.90;;;;;;5079128;28;20039;-69
2022/01/19 14:11:48;;;;;;;40.00;22.98;;;5.90;99.90;;;;;;5079240;28;20047;-69
2022/01/19 14:14:21;;;;;;;42.53;23.50;;;5.90;99.90;;;;;;5079148;28;20062;-64
2022/01/19 14:16:50;;;;;;;45.58;25.27;;;5.80;99.90;;;;;;5079139;28;20051;-69
2022/01/19 14:19:20;;;;;;;40.90;23.77;;;5.80;99.90;;;;;;5078303;28;20320;-68
2022/01/19 14:22:00;;;;;;;38.60;22.38;;;5.90;99.90;;;;;;5078143;28;20477;-69
2022/01/19 14:24:29;;;;;;;39.25;23.15;;;6.10;99.90;;;;;;5078110;28;20029;-69
2022/01/19 14:26:57;;;;;;;40.03;23.63;;;6.20;99.90;;;;;;5077988;28;20020;-69
2022/01/19 14:29:23;;;;;;;40.55;22.45;;;6.10;99.90;;;;;;5078708;28;20047;-69
2022/01/19 14:31:55;;;;;;;37.85;22.65;;;6.00;99.90;;;;;;5077630;28;20025;-70
2022/01/19 14:34:46;;;;;;;39.50;22.52;;;6.00;99.90;;;;;;5077749;28;20049;-69